sensor_id;sensor_type;location;lat;lon;timestamp;pressure;altitude;pressure_sealevel;temperature;humidity
62779;BME280;48821;48.796;2.396;2022-08-14T08:50:18;100414.00;;;26.85;37.70
62779;BME280;48821;48.796;2.396;2022-08-14T08:51:35;100411.16;;;26.87;38.71
62779;BME280;48821;48.796;2.396;2022-08-14T08:52:52;100411.47;;;26.92;37.59
62779;BME280;48821;48.796;2.396;2022-08-14T08:54:06;100414.69;;;26.95;37.20
62779;BME280;48821;48.796;2.396;2022-08-14T08:55:23;100418.72;;;27.00;37.28
62779;BME280;48821;48.796;2.396;2022-08-14T08:56:41;100419.06;;;27.05;38.67
62779;BME280;48821;48.796;2.396;2022-08-14T08:58:02;100427.84;;;27.07;39.18
62779;BME280;48821;48.796;2.396;2022-08-14T08:59:20;100425.81;;;27.09;37.96
62779;BME280;48821;48.796;2.396;2022-08-14T09:00:33;100423.66;;;27.13;38.58
62779;BME280;48821;48.796;2.396;2022-08-14T09:02:05;100418.94;;;27.15;38.28
62779;BME280;48821;48.796;2.396;2022-08-14T09:03:19;100428.22;;;27.21;37.94
62779;BME280;48821;48.796;2.396;2022-08-14T09:04:42;100418.59;;;27.26;38.14
62779;BME280;48821;48.796;2.396;2022-08-14T09:06:00;100421.63;;;27.32;38.54
62779;BME280;48821;48.796;2.396;2022-08-14T09:07:12;100425.50;;;27.37;38.03
62779;BME280;48821;48.796;2.396;2022-08-14T09:08:32;100426.69;;;27.43;38.23
62779;BME280;48821;48.796;2.396;2022-08-14T09:09:42;100416.38;;;27.47;37.73
62779;BME280;48821;48.796;2.396;2022-08-14T09:11:04;100419.06;;;27.55;38.41
62779;BME280;48821;48.796;2.396;2022-08-14T09:12:17;100420.22;;;27.61;37.70
62779;BME280;48821;48.796;2.396;2022-08-14T09:13:28;100414.69;;;27.62;37.87
62779;BME280;48821;48.796;2.396;2022-08-14T09:14:39;100411.63;;;27.66;37.78
62779;BME280;48821;48.796;2.396;2022-08-14T09:15:51;100412.47;;;27.66;37.79
62779;BME280;48821;48.796;2.396;2022-08-14T09:17:02;100412.31;;;27.68;37.58
62779;BME280;48821;48.796;2.396;2022-08-14T09:18:14;100415.16;;;27.74;37.42
62779;BME280;48821;48.796;2.396;2022-08-14T09:19:25;100415.81;;;27.77;37.56
62779;BME280;48821;48.796;2.396;2022-08-14T09:20:41;100418.22;;;27.80;37.52
62779;BME280;48821;48.796;2.396;2022-08-14T09:21:51;100411.63;;;27.82;37.32
62779;BME280;48821;48.796;2.396;2022-08-14T09:23:04;100413.13;;;27.85;37.48
62779;BME280;48821;48.796;2.396;2022-08-14T09:24:14;100411.56;;;27.91;37.43
62779;BME280;48821;48.796;2.396;2022-08-14T09:25:25;100419.53;;;27.92;36.93
62779;BME280;48821;48.796;2.396;2022-08-14T09:26:36;100427.09;;;27.97;37.15
62779;BME280;48821;48.796;2.396;2022-08-14T09:27:46;100427.94;;;27.97;37.19
62779;BME280;48821;48.796;2.396;2022-08-14T09:28:57;100422.84;;;28.03;37.19
62779;BME280;48821;48.796;2.396;2022-08-14T09:30:08;100418.94;;;28.05;37.04
62779;BME280;48821;48.796;2.396;2022-08-14T09:31:19;100421.31;;;28.08;37.00
62779;BME280;48821;48.796;2.396;2022-08-14T09:32:38;100429.06;;;28.12;37.40
62779;BME280;48821;48.796;2.396;2022-08-14T09:35:22;100419.44;;;28.17;36.88
62779;BME280;48821;48.796;2.396;2022-08-14T09:42:56;100424.78;;;28.26;36.35
62779;BME280;48821;48.796;2.396;2022-08-14T09:44:28;100426.28;;;28.28;36.56
62779;BME280;48821;48.796;2.396;2022-08-14T09:45:47;100415.47;;;28.28;36.26
62779;BME280;48821;48.796;2.396;2022-08-14T09:46:57;100412.59;;;28.30;35.87
62779;BME280;48821;48.796;2.396;2022-08-14T09:48:22;100412.44;;;28.31;36.04
62779;BME280;48821;48.796;2.396;2022-08-14T09:49:35;100407.69;;;28.34;36.17
62779;BME280;48821;48.796;2.396;2022-08-14T09:50:51;100410.88;;;28.37;36.11
62779;BME280;48821;48.796;2.396;2022-08-14T09:53:42;100407.16;;;28.38;36.17
62779;BME280;48821;48.796;2.396;2022-08-14T09:54:53;100413.41;;;28.39;36.19
62779;BME280;48821;48.796;2.396;2022-08-14T09:56:03;100402.41;;;28.40;35.85
62779;BME280;48821;48.796;2.396;2022-08-14T09:57:25;100397.66;;;28.42;35.77
62779;BME280;48821;48.796;2.396;2022-08-14T09:58:41;100395.50;;;28.46;35.41
62779;BME280;48821;48.796;2.396;2022-08-14T09:59:53;100394.44;;;28.47;36.23
62779;BME280;48821;48.796;2.396;2022-08-14T10:02:23;100400.84;;;28.55;35.72
62779;BME280;48821;48.796;2.396;2022-08-14T10:03:36;100406.91;;;28.57;35.11
62779;BME280;48821;48.796;2.396;2022-08-14T10:04:58;100401.50;;;28.57;35.12
62779;BME280;48821;48.796;2.396;2022-08-14T10:06:14;100392.03;;;28.61;35.04
62779;BME280;48821;48.796;2.396;2022-08-14T10:07:33;100392.69;;;28.63;35.38
62779;BME280;48821;48.796;2.396;2022-08-14T10:10:34;100409.50;;;28.73;34.97
62779;BME280;48821;48.796;2.396;2022-08-14T10:11:58;100406.44;;;28.76;35.06
62779;BME280;48821;48.796;2.396;2022-08-14T10:13:23;100398.81;;;28.80;34.98
62779;BME280;48821;48.796;2.396;2022-08-14T10:14:34;100401.31;;;28.82;35.23
62779;BME280;48821;48.796;2.396;2022-08-14T10:15:44;100395.91;;;28.82;34.85
62779;BME280;48821;48.796;2.396;2022-08-14T10:16:56;100404.72;;;28.84;34.91
62779;BME280;48821;48.796;2.396;2022-08-14T10:18:18;100405.19;;;28.87;34.97
62779;BME280;48821;48.796;2.396;2022-08-14T10:19:30;100400.59;;;28.88;35.21
62779;BME280;48821;48.796;2.396;2022-08-14T10:20:43;100413.13;;;28.89;34.95
62779;BME280;48821;48.796;2.396;2022-08-14T10:22:03;100418.16;;;28.92;34.82
62779;BME280;48821;48.796;2.396;2022-08-14T10:23:18;100422.56;;;28.93;34.67
62779;BME280;48821;48.796;2.396;2022-08-14T10:24:32;100409.88;;;28.94;34.56
62779;BME280;48821;48.796;2.396;2022-08-14T10:25:51;100417.44;;;28.98;34.69
62779;BME280;48821;48.796;2.396;2022-08-14T10:27:02;100420.81;;;29.01;34.41
62779;BME280;48821;48.796;2.396;2022-08-14T10:28:13;100415.38;;;29.01;34.45
62779;BME280;48821;48.796;2.396;2022-08-14T10:29:35;100418.56;;;29.04;34.77
62779;BME280;48821;48.796;2.396;2022-08-14T10:30:48;100424.16;;;29.03;34.82
62779;BME280;48821;48.796;2.396;2022-08-14T10:32:03;100422.09;;;29.05;34.63
62779;BME280;48821;48.796;2.396;2022-08-14T10:33:29;100423.81;;;29.06;34.56
62779;BME280;48821;48.796;2.396;2022-08-14T10:34:40;100415.69;;;29.06;34.57
62779;BME280;48821;48.796;2.396;2022-08-14T10:35:50;100417.34;;;29.07;34.62
62779;BME280;48821;48.796;2.396;2022-08-14T10:37:06;100423.44;;;29.09;34.51
62779;BME280;48821;48.796;2.396;2022-08-14T10:38:31;100429.34;;;29.13;34.70
62779;BME280;48821;48.796;2.396;2022-08-14T10:39:56;100432.72;;;29.15;34.59
62779;BME280;48821;48.796;2.396;2022-08-14T10:41:15;100432.56;;;29.16;34.17
62779;BME280;48821;48.796;2.396;2022-08-14T10:42:34;100431.50;;;29.17;34.39
62779;BME280;48821;48.796;2.396;2022-08-14T10:44:05;100432.16;;;29.19;33.91
62779;BME280;48821;48.796;2.396;2022-08-14T10:45:22;100432.00;;;29.21;34.49
62779;BME280;48821;48.796;2.396;2022-08-14T10:46:51;100430.78;;;29.24;34.46
62779;BME280;48821;48.796;2.396;2022-08-14T10:48:13;100426.84;;;29.26;34.77
62779;BME280;48821;48.796;2.396;2022-08-14T10:49:24;100432.09;;;29.28;34.75
62779;BME280;48821;48.796;2.396;2022-08-14T10:50:40;100424.44;;;29.31;34.52
62779;BME280;48821;48.796;2.396;2022-08-14T10:53:15;100432.22;;;29.35;34.40
62779;BME280;48821;48.796;2.396;2022-08-14T10:54:46;100429.31;;;29.36;34.77
62779;BME280;48821;48.796;2.396;2022-08-14T10:55:59;100424.75;;;29.37;34.46
62779;BME280;48821;48.796;2.396;2022-08-14T10:57:23;100428.09;;;29.39;33.85
62779;BME280;48821;48.796;2.396;2022-08-14T10:58:34;100427.28;;;29.38;34.12
62779;BME280;48821;48.796;2.396;2022-08-14T11:00:11;100427.28;;;29.38;33.88
62779;BME280;48821;48.796;2.396;2022-08-14T11:01:29;100417.47;;;29.37;34.53
62779;BME280;48821;48.796;2.396;2022-08-14T11:02:41;100432.69;;;29.38;34.42
62779;BME280;48821;48.796;2.396;2022-08-14T11:03:51;100433.72;;;29.37;33.79
62779;BME280;48821;48.796;2.396;2022-08-14T11:05:09;100431.34;;;29.34;34.18
62779;BME280;48821;48.796;2.396;2022-08-14T11:06:23;100429.41;;;29.28;34.41
62779;BME280;48821;48.796;2.396;2022-08-14T11:07:35;100428.75;;;29.26;34.39
62779;BME280;48821;48.796;2.396;2022-08-14T11:08:48;100430.41;;;29.27;34.58
62779;BME280;48821;48.796;2.396;2022-08-14T11:10:06;100438.53;;;29.27;34.83
62779;BME280;48821;48.796;2.396;2022-08-14T11:11:18;100440.22;;;29.28;34.37
62779;BME280;48821;48.796;2.396;2022-08-14T11:12:58;100437.69;;;29.26;34.78
62779;BME280;48821;48.796;2.396;2022-08-14T11:14:08;100431.81;;;29.23;34.50
62779;BME280;48821;48.796;2.396;2022-08-14T11:15:20;100437.03;;;29.24;34.53
62779;BME280;48821;48.796;2.396;2022-08-14T11:16:32;100439.94;;;29.23;34.34
62779;BME280;48821;48.796;2.396;2022-08-14T11:17:43;100440.94;;;29.21;34.82
62779;BME280;48821;48.796;2.396;2022-08-14T11:18:56;100437.13;;;29.16;34.65
62779;BME280;48821;48.796;2.396;2022-08-14T11:20:08;100440.19;;;29.13;35.33
62779;BME280;48821;48.796;2.396;2022-08-14T11:21:19;100431.22;;;29.12;34.74
62779;BME280;48821;48.796;2.396;2022-08-14T11:22:32;100433.06;;;29.12;34.83
62779;BME280;48821;48.796;2.396;2022-08-14T11:23:45;100444.75;;;29.12;35.77
62779;BME280;48821;48.796;2.396;2022-08-14T11:25:01;100439.53;;;29.11;35.18
62779;BME280;48821;48.796;2.396;2022-08-14T11:26:13;100436.28;;;29.07;35.00
62779;BME280;48821;48.796;2.396;2022-08-14T11:27:24;100443.44;;;29.08;35.57
62779;BME280;48821;48.796;2.396;2022-08-14T11:28:38;100451.53;;;29.08;35.59
62779;BME280;48821;48.796;2.396;2022-08-14T11:29:50;100440.72;;;29.08;34.96
62779;BME280;48821;48.796;2.396;2022-08-14T11:31:02;100436.97;;;29.09;35.60
62779;BME280;48821;48.796;2.396;2022-08-14T11:32:14;100443.22;;;29.09;35.61
62779;BME280;48821;48.796;2.396;2022-08-14T11:33:26;100439.00;;;29.07;34.97
62779;BME280;48821;48.796;2.396;2022-08-14T11:34:41;100435.13;;;29.09;35.88
62779;BME280;48821;48.796;2.396;2022-08-14T11:35:52;100443.22;;;29.09;35.66
62779;BME280;48821;48.796;2.396;2022-08-14T11:37:12;100450.50;;;29.09;34.96
62779;BME280;48821;48.796;2.396;2022-08-14T11:38:23;100445.09;;;29.09;35.47
62779;BME280;48821;48.796;2.396;2022-08-14T11:39:34;100447.97;;;29.07;35.15
62779;BME280;48821;48.796;2.396;2022-08-14T11:40:45;100443.59;;;29.06;35.94
62779;BME280;48821;48.796;2.396;2022-08-14T11:41:55;100457.94;;;29.07;35.28
62779;BME280;48821;48.796;2.396;2022-08-14T11:43:08;100449.81;;;29.07;35.61
62779;BME280;48821;48.796;2.396;2022-08-14T11:44:18;100450.00;;;29.05;35.83
62779;BME280;48821;48.796;2.396;2022-08-14T11:45:31;100449.69;;;29.08;35.92
62779;BME280;48821;48.796;2.396;2022-08-14T11:46:43;100454.41;;;29.06;35.20
62779;BME280;48821;48.796;2.396;2022-08-14T11:47:54;100454.91;;;29.02;35.17
62779;BME280;48821;48.796;2.396;2022-08-14T11:49:05;100454.66;;;28.96;36.06
62779;BME280;48821;48.796;2.396;2022-08-14T11:50:20;100446.22;;;28.91;35.82
62779;BME280;48821;48.796;2.396;2022-08-14T11:51:33;100453.00;;;28.87;35.63
62779;BME280;48821;48.796;2.396;2022-08-14T11:52:44;100451.22;;;28.79;35.47
62779;BME280;48821;48.796;2.396;2022-08-14T11:53:58;100467.13;;;28.74;37.10
62779;BME280;48821;48.796;2.396;2022-08-14T11:55:12;100455.16;;;28.68;36.31
62779;BME280;48821;48.796;2.396;2022-08-14T11:56:23;100457.88;;;28.68;37.95
62779;BME280;48821;48.796;2.396;2022-08-14T11:57:34;100457.19;;;28.66;38.41
62779;BME280;48821;48.796;2.396;2022-08-14T11:58:52;100465.31;;;28.66;37.50
62779;BME280;48821;48.796;2.396;2022-08-14T12:00:06;100473.78;;;28.63;37.37
62779;BME280;48821;48.796;2.396;2022-08-14T12:01:27;100467.03;;;28.59;38.87
62779;BME280;48821;48.796;2.396;2022-08-14T12:02:49;100471.78;;;28.57;37.14
62779;BME280;48821;48.796;2.396;2022-08-14T12:04:26;100469.44;;;28.53;38.33
62779;BME280;48821;48.796;2.396;2022-08-14T12:05:38;100471.81;;;28.48;37.52
62779;BME280;48821;48.796;2.396;2022-08-14T12:06:53;100475.91;;;28.44;38.00
62779;BME280;48821;48.796;2.396;2022-08-14T12:08:05;100472.50;;;28.42;38.51
62779;BME280;48821;48.796;2.396;2022-08-14T12:09:29;100469.97;;;28.40;37.95
62779;BME280;48821;48.796;2.396;2022-08-14T12:10:41;100466.94;;;28.35;38.49
62779;BME280;48821;48.796;2.396;2022-08-14T12:11:52;100468.13;;;28.33;39.01
62779;BME280;48821;48.796;2.396;2022-08-14T12:13:16;100467.66;;;28.29;38.74
62779;BME280;48821;48.796;2.396;2022-08-14T12:14:28;100464.44;;;28.25;39.60
62779;BME280;48821;48.796;2.396;2022-08-14T12:15:39;100471.03;;;28.23;39.06
62779;BME280;48821;48.796;2.396;2022-08-14T12:17:16;100469.38;;;28.22;38.27
62779;BME280;48821;48.796;2.396;2022-08-14T12:18:31;100485.59;;;28.22;39.34
62779;BME280;48821;48.796;2.396;2022-08-14T12:19:52;100483.41;;;28.17;38.33
62779;BME280;48821;48.796;2.396;2022-08-14T12:21:18;100479.19;;;28.14;39.02
62779;BME280;48821;48.796;2.396;2022-08-14T12:22:34;100481.06;;;28.14;38.37
62779;BME280;48821;48.796;2.396;2022-08-14T12:23:47;100486.97;;;28.09;37.98
62779;BME280;48821;48.796;2.396;2022-08-14T12:24:58;100495.75;;;28.03;40.95
62779;BME280;48821;48.796;2.396;2022-08-14T12:26:13;100491.56;;;28.00;39.36
62779;BME280;48821;48.796;2.396;2022-08-14T12:27:40;100493.56;;;27.98;39.03
62779;BME280;48821;48.796;2.396;2022-08-14T12:29:13;100487.19;;;27.91;39.01
62779;BME280;48821;48.796;2.396;2022-08-14T12:30:41;100496.66;;;27.86;39.11
62779;BME280;48821;48.796;2.396;2022-08-14T12:31:59;100494.66;;;27.80;38.79
62779;BME280;48821;48.796;2.396;2022-08-14T12:33:27;100503.06;;;27.77;40.23
62779;BME280;48821;48.796;2.396;2022-08-14T12:34:39;100506.09;;;27.74;41.46
62779;BME280;48821;48.796;2.396;2022-08-14T12:35:50;100512.50;;;27.73;41.01
62779;BME280;48821;48.796;2.396;2022-08-14T12:37:04;100509.81;;;27.73;41.25
62779;BME280;48821;48.796;2.396;2022-08-14T12:38:15;100522.13;;;27.75;41.60
62779;BME280;48821;48.796;2.396;2022-08-14T12:39:28;100523.31;;;27.73;40.89
62779;BME280;48821;48.796;2.396;2022-08-14T12:40:50;100522.78;;;27.69;40.48
62779;BME280;48821;48.796;2.396;2022-08-14T12:42:02;100527.69;;;27.66;41.50
62779;BME280;48821;48.796;2.396;2022-08-14T12:43:16;100526.00;;;27.64;40.68
62779;BME280;48821;48.796;2.396;2022-08-14T12:44:30;100520.94;;;27.61;40.56
62779;BME280;48821;48.796;2.396;2022-08-14T12:45:45;100515.06;;;27.58;41.63
62779;BME280;48821;48.796;2.396;2022-08-14T12:47:09;100519.59;;;27.57;42.14
62779;BME280;48821;48.796;2.396;2022-08-14T12:48:24;100512.50;;;27.56;41.81
62779;BME280;48821;48.796;2.396;2022-08-14T12:49:50;100502.88;;;27.53;43.08
62779;BME280;48821;48.796;2.396;2022-08-14T12:51:01;100500.53;;;27.50;43.79
62779;BME280;48821;48.796;2.396;2022-08-14T12:52:12;100493.63;;;27.48;42.94
62779;BME280;48821;48.796;2.396;2022-08-14T12:53:32;100499.34;;;27.45;44.41
62779;BME280;48821;48.796;2.396;2022-08-14T12:54:44;100498.50;;;27.44;45.09
62779;BME280;48821;48.796;2.396;2022-08-14T12:55:59;100494.81;;;27.45;44.16
62779;BME280;48821;48.796;2.396;2022-08-14T12:57:11;100491.25;;;27.45;46.87
62779;BME280;48821;48.796;2.396;2022-08-14T12:58:28;100493.97;;;27.45;45.03
62779;BME280;48821;48.796;2.396;2022-08-14T12:59:39;100497.34;;;27.47;44.56
62779;BME280;48821;48.796;2.396;2022-08-14T13:00:49;100487.38;;;27.47;46.25
62779;BME280;48821;48.796;2.396;2022-08-14T13:01:59;100488.06;;;27.49;45.96
62779;BME280;48821;48.796;2.396;2022-08-14T13:03:22;100489.56;;;27.52;44.34
62779;BME280;48821;48.796;2.396;2022-08-14T13:04:34;100484.34;;;27.50;43.33
62779;BME280;48821;48.796;2.396;2022-08-14T13:05:47;100496.16;;;27.49;43.48
62779;BME280;48821;48.796;2.396;2022-08-14T13:07:02;100481.31;;;27.45;43.81
62779;BME280;48821;48.796;2.396;2022-08-14T13:08:16;100483.34;;;27.43;43.13
62779;BME280;48821;48.796;2.396;2022-08-14T13:09:26;100490.59;;;27.42;43.48
62779;BME280;48821;48.796;2.396;2022-08-14T13:10:38;100487.03;;;27.42;43.22
62779;BME280;48821;48.796;2.396;2022-08-14T13:11:50;100479.81;;;27.42;43.05
62779;BME280;48821;48.796;2.396;2022-08-14T13:13:01;100480.66;;;27.43;43.77
62779;BME280;48821;48.796;2.396;2022-08-14T13:14:15;100480.66;;;27.43;43.95
62779;BME280;48821;48.796;2.396;2022-08-14T13:15:26;100481.31;;;27.45;43.19
62779;BME280;48821;48.796;2.396;2022-08-14T13:16:36;100474.06;;;27.46;43.76
62779;BME280;48821;48.796;2.396;2022-08-14T13:17:51;100490.25;;;27.46;43.92
62779;BME280;48821;48.796;2.396;2022-08-14T13:19:02;100477.78;;;27.45;43.63
62779;BME280;48821;48.796;2.396;2022-08-14T13:20:15;100482.84;;;27.48;43.84
62779;BME280;48821;48.796;2.396;2022-08-14T13:21:27;100484.50;;;27.49;44.21
62779;BME280;48821;48.796;2.396;2022-08-14T13:22:40;100479.09;;;27.49;43.86
62779;BME280;48821;48.796;2.396;2022-08-14T13:23:56;100480.28;;;27.46;43.77
62779;BME280;48821;48.796;2.396;2022-08-14T13:25:10;100483.16;;;27.45;43.65
62779;BME280;48821;48.796;2.396;2022-08-14T13:26:25;100480.47;;;27.45;44.56
62779;BME280;48821;48.796;2.396;2022-08-14T13:27:36;100482.50;;;27.42;45.14
62779;BME280;48821;48.796;2.396;2022-08-14T13:28:47;100479.81;;;27.42;44.49
62779;BME280;48821;48.796;2.396;2022-08-14T13:30:03;100476.91;;;27.44;44.96
62779;BME280;48821;48.796;2.396;2022-08-14T13:31:15;100476.91;;;27.44;44.77
62779;BME280;48821;48.796;2.396;2022-08-14T13:32:26;100474.06;;;27.46;46.66
62779;BME280;48821;48.796;2.396;2022-08-14T13:33:38;100477.44;;;27.48;45.09
62779;BME280;48821;48.796;2.396;2022-08-14T13:34:49;100477.44;;;27.48;46.85
62779;BME280;48821;48.796;2.396;2022-08-14T13:36:01;100467.50;;;27.48;47.12
62779;BME280;48821;48.796;2.396;2022-08-14T13:37:17;100469.16;;;27.49;47.14
62779;BME280;48821;48.796;2.396;2022-08-14T13:38:27;100471.00;;;27.49;47.98
62779;BME280;48821;48.796;2.396;2022-08-14T13:39:38;100475.09;;;27.53;46.87
62779;BME280;48821;48.796;2.396;2022-08-14T13:40:49;100473.91;;;27.56;47.75
62779;BME280;48821;48.796;2.396;2022-08-14T13:42:04;100475.56;;;27.57;46.15
62779;BME280;48821;48.796;2.396;2022-08-14T13:43:17;100471.03;;;27.57;45.45
62779;BME280;48821;48.796;2.396;2022-08-14T13:44:29;100475.41;;;27.58;46.31
62779;BME280;48821;48.796;2.396;2022-08-14T13:45:41;100470.03;;;27.58;45.16
62779;BME280;48821;48.796;2.396;2022-08-14T13:46:54;100472.03;;;27.56;45.83
62779;BME280;48821;48.796;2.396;2022-08-14T13:48:04;100469.31;;;27.56;45.49
62779;BME280;48821;48.796;2.396;2022-08-14T13:49:15;100464.09;;;27.55;45.58
62779;BME280;48821;48.796;2.396;2022-08-14T13:50:27;100459.38;;;27.57;46.03
62779;BME280;48821;48.796;2.396;2022-08-14T13:51:40;100464.44;;;27.60;46.76
62779;BME280;48821;48.796;2.396;2022-08-14T13:52:56;100459.88;;;27.60;45.73
62779;BME280;48821;48.796;2.396;2022-08-14T13:54:08;100459.03;;;27.60;45.47
62779;BME280;48821;48.796;2.396;2022-08-14T13:55:25;100459.88;;;27.60;46.86
62779;BME280;48821;48.796;2.396;2022-08-14T13:56:38;100454.66;;;27.59;46.85
62779;BME280;48821;48.796;2.396;2022-08-14T13:57:49;100456.69;;;27.57;45.68
62779;BME280;48821;48.796;2.396;2022-08-14T13:59:00;100456.53;;;27.58;46.29
62779;BME280;48821;48.796;2.396;2022-08-14T14:00:13;100455.16;;;27.54;46.27
62779;BME280;48821;48.796;2.396;2022-08-14T14:01:26;100450.59;;;27.55;47.30
62779;BME280;48821;48.796;2.396;2022-08-14T14:02:45;100453.31;;;27.55;46.92
62779;BME280;48821;48.796;2.396;2022-08-14T14:03:56;100445.22;;;27.55;46.18
62779;BME280;48821;48.796;2.396;2022-08-14T14:05:08;100439.47;;;27.58;46.37
62779;BME280;48821;48.796;2.396;2022-08-14T14:06:19;100448.25;;;27.60;46.99
62779;BME280;48821;48.796;2.396;2022-08-14T14:07:33;100436.25;;;27.62;45.95
62779;BME280;48821;48.796;2.396;2022-08-14T14:08:47;100436.94;;;27.64;48.17
62779;BME280;48821;48.796;2.396;2022-08-14T14:10:00;100434.22;;;27.64;47.65
62779;BME280;48821;48.796;2.396;2022-08-14T14:11:12;100437.59;;;27.67;46.90
62779;BME280;48821;48.796;2.396;2022-08-14T14:12:23;100437.25;;;27.70;46.87
62779;BME280;48821;48.796;2.396;2022-08-14T14:13:34;100433.38;;;27.72;46.10
62779;BME280;48821;48.796;2.396;2022-08-14T14:14:45;100433.88;;;27.76;46.89
62779;BME280;48821;48.796;2.396;2022-08-14T14:15:56;100431.16;;;27.76;47.21
62779;BME280;48821;48.796;2.396;2022-08-14T14:17:11;100429.31;;;27.77;47.39
62779;BME280;48821;48.796;2.396;2022-08-14T14:18:24;100423.72;;;27.78;47.45
62779;BME280;48821;48.796;2.396;2022-08-14T14:19:37;100431.53;;;27.81;47.01
62779;BME280;48821;48.796;2.396;2022-08-14T14:20:50;100425.78;;;27.84;46.05
62779;BME280;48821;48.796;2.396;2022-08-14T14:22:01;100435.53;;;27.85;46.33
62779;BME280;48821;48.796;2.396;2022-08-14T14:23:13;100435.22;;;27.89;46.40
62779;BME280;48821;48.796;2.396;2022-08-14T14:24:23;100436.06;;;27.89;46.32
62779;BME280;48821;48.796;2.396;2022-08-14T14:25:34;100440.47;;;27.90;46.52
62779;BME280;48821;48.796;2.396;2022-08-14T14:26:47;100435.88;;;27.91;46.24
62779;BME280;48821;48.796;2.396;2022-08-14T14:27:58;100425.78;;;27.93;47.48
62779;BME280;48821;48.796;2.396;2022-08-14T14:29:10;100425.59;;;27.94;46.76
62779;BME280;48821;48.796;2.396;2022-08-14T14:30:24;100421.03;;;27.95;47.05
62779;BME280;48821;48.796;2.396;2022-08-14T14:31:37;100420.84;;;27.96;47.04
62779;BME280;48821;48.796;2.396;2022-08-14T14:32:47;100425.25;;;27.97;47.98
62779;BME280;48821;48.796;2.396;2022-08-14T14:34:00;100425.72;;;28.01;47.51
62779;BME280;48821;48.796;2.396;2022-08-14T14:35:13;100425.06;;;27.99;46.75
62779;BME280;48821;48.796;2.396;2022-08-14T14:36:28;100427.41;;;28.02;46.50
62779;BME280;48821;48.796;2.396;2022-08-14T14:37:42;100420.13;;;28.03;46.39
62779;BME280;48821;48.796;2.396;2022-08-14T14:38:55;100419.31;;;28.02;47.48
62779;BME280;48821;48.796;2.396;2022-08-14T14:40:06;100424.72;;;28.02;47.00
62779;BME280;48821;48.796;2.396;2022-08-14T14:41:20;100422.03;;;28.02;47.71
62779;BME280;48821;48.796;2.396;2022-08-14T14:42:31;100422.84;;;28.03;47.92
62779;BME280;48821;48.796;2.396;2022-08-14T14:43:47;100423.03;;;28.01;49.46
62779;BME280;48821;48.796;2.396;2022-08-14T14:45:07;100423.03;;;28.01;46.84
62779;BME280;48821;48.796;2.396;2022-08-14T14:46:24;100413.91;;;28.02;48.97
62779;BME280;48821;48.796;2.396;2022-08-14T14:47:35;100424.72;;;28.02;48.32
62779;BME280;48821;48.796;2.396;2022-08-14T14:48:45;100421.84;;;28.04;48.21
62779;BME280;48821;48.796;2.396;2022-08-14T14:49:57;100428.09;;;28.04;47.43
62779;BME280;48821;48.796;2.396;2022-08-14T14:51:07;100425.38;;;28.04;47.47
62779;BME280;48821;48.796;2.396;2022-08-14T14:52:18;100423.34;;;28.06;48.52
62779;BME280;48821;48.796;2.396;2022-08-14T14:53:32;100426.88;;;28.07;47.02
62779;BME280;48821;48.796;2.396;2022-08-14T14:54:43;100426.03;;;28.06;47.73
62779;BME280;48821;48.796;2.396;2022-08-14T14:55:55;100429.94;;;28.04;47.77
62779;BME280;48821;48.796;2.396;2022-08-14T14:57:05;100431.78;;;28.03;47.63
62779;BME280;48821;48.796;2.396;2022-08-14T14:58:17;100431.78;;;28.03;47.36
62779;BME280;48821;48.796;2.396;2022-08-14T14:59:30;100431.78;;;28.03;47.66
62779;BME280;48821;48.796;2.396;2022-08-14T15:00:41;100430.78;;;28.04;47.60
62779;BME280;48821;48.796;2.396;2022-08-14T15:02:02;100431.78;;;28.03;46.67
62779;BME280;48821;48.796;2.396;2022-08-14T15:03:15;100426.22;;;28.05;47.94
62779;BME280;48821;48.796;2.396;2022-08-14T15:04:25;100416.25;;;28.05;47.54
62779;BME280;48821;48.796;2.396;2022-08-14T15:05:36;100420.66;;;28.06;47.16
62779;BME280;48821;48.796;2.396;2022-08-14T15:06:47;100420.66;;;28.06;47.19
62779;BME280;48821;48.796;2.396;2022-08-14T15:07:57;100411.88;;;28.04;48.22
62779;BME280;48821;48.796;2.396;2022-08-14T15:09:07;100414.38;;;28.06;47.47
62779;BME280;48821;48.796;2.396;2022-08-14T15:10:19;100409.19;;;28.04;47.47
62779;BME280;48821;48.796;2.396;2022-08-14T15:11:30;100406.13;;;28.07;47.16
62779;BME280;48821;48.796;2.396;2022-08-14T15:12:41;100400.88;;;28.06;46.54
62779;BME280;48821;48.796;2.396;2022-08-14T15:13:53;100408.00;;;28.07;46.15
62779;BME280;48821;48.796;2.396;2022-08-14T15:15:04;100405.28;;;28.07;46.42
62779;BME280;48821;48.796;2.396;2022-08-14T15:16:15;100402.25;;;28.10;46.40
62779;BME280;48821;48.796;2.396;2022-08-14T15:17:25;100398.69;;;28.09;45.93
62779;BME280;48821;48.796;2.396;2022-08-14T15:18:42;100406.78;;;28.09;46.22
62779;BME280;48821;48.796;2.396;2022-08-14T15:19:55;100405.28;;;28.07;47.57
62779;BME280;48821;48.796;2.396;2022-08-14T15:21:05;100398.19;;;28.06;46.75
62779;BME280;48821;48.796;2.396;2022-08-14T15:22:16;100400.03;;;28.05;47.33
62779;BME280;48821;48.796;2.396;2022-08-14T15:23:28;100404.78;;;28.03;46.47
62779;BME280;48821;48.796;2.396;2022-08-14T15:24:39;100399.38;;;28.03;46.85
62779;BME280;48821;48.796;2.396;2022-08-14T15:25:49;100396.00;;;28.01;47.27
62779;BME280;48821;48.796;2.396;2022-08-14T15:27:00;100396.00;;;28.01;47.75
62779;BME280;48821;48.796;2.396;2022-08-14T15:28:15;100394.34;;;28.00;47.33
62779;BME280;48821;48.796;2.396;2022-08-14T15:29:27;100391.81;;;27.98;47.76
62779;BME280;48821;48.796;2.396;2022-08-14T15:30:39;100402.59;;;27.98;47.23
62779;BME280;48821;48.796;2.396;2022-08-14T15:31:49;100397.38;;;27.97;47.42
62779;BME280;48821;48.796;2.396;2022-08-14T15:32:59;100401.09;;;27.96;47.67